sensor_id;sensor_type;location;lat;lon;timestamp;temperature;humidity
39665;DHT22;26679;50.872;4.332;2023-09-08T00:02:00;26.60;93.50
39665;DHT22;26679;50.872;4.332;2023-09-08T00:04:26;26.60;93.60
39665;DHT22;26679;50.872;4.332;2023-09-08T00:06:51;26.60;93.60
39665;DHT22;26679;50.872;4.332;2023-09-08T00:09:17;26.50;93.60
39665;DHT22;26679;50.872;4.332;2023-09-08T00:11:43;26.50;93.70
39665;DHT22;26679;50.872;4.332;2023-09-08T00:14:08;26.50;93.90
39665;DHT22;26679;50.872;4.332;2023-09-08T00:16:34;26.40;94.00
39665;DHT22;26679;50.872;4.332;2023-09-08T00:18:59;26.40;93.90
39665;DHT22;26679;50.872;4.332;2023-09-08T00:21:25;26.30;93.90
39665;DHT22;26679;50.872;4.332;2023-09-08T00:23:51;26.30;93.90
39665;DHT22;26679;50.872;4.332;2023-09-08T00:26:16;26.30;93.80
39665;DHT22;26679;50.872;4.332;2023-09-08T00:28:42;26.30;93.80
39665;DHT22;26679;50.872;4.332;2023-09-08T00:31:07;26.30;93.80
39665;DHT22;26679;50.872;4.332;2023-09-08T00:33:33;26.20;94.00
39665;DHT22;26679;50.872;4.332;2023-09-08T00:35:58;26.20;94.00
39665;DHT22;26679;50.872;4.332;2023-09-08T00:38:24;26.20;94.10
39665;DHT22;26679;50.872;4.332;2023-09-08T00:40:50;26.20;94.10
39665;DHT22;26679;50.872;4.332;2023-09-08T00:43:16;26.10;94.10
39665;DHT22;26679;50.872;4.332;2023-09-08T00:45:42;25.90;94.00
39665;DHT22;26679;50.872;4.332;2023-09-08T00:48:08;25.90;94.20
39665;DHT22;26679;50.872;4.332;2023-09-08T00:50:35;25.80;94.20
39665;DHT22;26679;50.872;4.332;2023-09-08T00:53:01;25.80;94.30
39665;DHT22;26679;50.872;4.332;2023-09-08T00:55:27;25.70;94.50
39665;DHT22;26679;50.872;4.332;2023-09-08T00:57:52;25.60;94.50
39665;DHT22;26679;50.872;4.332;2023-09-08T01:00:18;25.60;94.50
39665;DHT22;26679;50.872;4.332;2023-09-08T01:02:43;25.60;94.40
39665;DHT22;26679;50.872;4.332;2023-09-08T01:05:10;25.60;94.50
39665;DHT22;26679;50.872;4.332;2023-09-08T01:07:36;25.50;94.50
39665;DHT22;26679;50.872;4.332;2023-09-08T01:10:01;25.50;94.50
39665;DHT22;26679;50.872;4.332;2023-09-08T01:12:31;25.50;94.40
39665;DHT22;26679;50.872;4.332;2023-09-08T01:14:57;25.40;94.40
39665;DHT22;26679;50.872;4.332;2023-09-08T01:17:22;25.40;94.50
39665;DHT22;26679;50.872;4.332;2023-09-08T01:19:48;25.40;94.60
39665;DHT22;26679;50.872;4.332;2023-09-08T01:27:09;25.30;94.60
39665;DHT22;26679;50.872;4.332;2023-09-08T01:29:36;25.30;94.60
39665;DHT22;26679;50.872;4.332;2023-09-08T01:32:03;25.30;94.70
39665;DHT22;26679;50.872;4.332;2023-09-08T01:34:30;25.20;94.60
39665;DHT22;26679;50.872;4.332;2023-09-08T01:36:55;25.20;94.70
39665;DHT22;26679;50.872;4.332;2023-09-08T01:39:22;25.20;94.80
39665;DHT22;26679;50.872;4.332;2023-09-08T01:41:47;25.20;94.60
39665;DHT22;26679;50.872;4.332;2023-09-08T01:44:13;25.20;94.50
39665;DHT22;26679;50.872;4.332;2023-09-08T01:46:38;25.20;94.60
39665;DHT22;26679;50.872;4.332;2023-09-08T01:49:06;25.10;94.70
39665;DHT22;26679;50.872;4.332;2023-09-08T01:51:31;25.10;94.70
39665;DHT22;26679;50.872;4.332;2023-09-08T01:53:57;25.20;94.70
39665;DHT22;26679;50.872;4.332;2023-09-08T01:56:22;25.20;94.70
39665;DHT22;26679;50.872;4.332;2023-09-08T01:58:48;25.20;94.60
39665;DHT22;26679;50.872;4.332;2023-09-08T02:01:13;25.20;94.60
39665;DHT22;26679;50.872;4.332;2023-09-08T02:03:39;25.20;94.60
39665;DHT22;26679;50.872;4.332;2023-09-08T02:06:04;25.20;94.70
39665;DHT22;26679;50.872;4.332;2023-09-08T02:08:30;25.10;94.60
39665;DHT22;26679;50.872;4.332;2023-09-08T02:10:55;25.10;94.80
39665;DHT22;26679;50.872;4.332;2023-09-08T02:13:21;25.10;94.90
39665;DHT22;26679;50.872;4.332;2023-09-08T02:15:46;25.10;95.00
39665;DHT22;26679;50.872;4.332;2023-09-08T02:18:12;25.00;94.80
39665;DHT22;26679;50.872;4.332;2023-09-08T02:20:38;25.00;94.70
39665;DHT22;26679;50.872;4.332;2023-09-08T02:23:05;25.00;94.80
39665;DHT22;26679;50.872;4.332;2023-09-08T02:25:30;25.00;94.90
39665;DHT22;26679;50.872;4.332;2023-09-08T02:27:56;25.00;94.80
39665;DHT22;26679;50.872;4.332;2023-09-08T02:30:21;25.00;94.80
39665;DHT22;26679;50.872;4.332;2023-09-08T02:32:47;25.00;94.90
39665;DHT22;26679;50.872;4.332;2023-09-08T02:35:13;24.90;94.80
39665;DHT22;26679;50.872;4.332;2023-09-08T02:37:38;24.90;94.80
39665;DHT22;26679;50.872;4.332;2023-09-08T02:40:04;24.80;94.70
39665;DHT22;26679;50.872;4.332;2023-09-08T02:42:31;24.90;94.70
39665;DHT22;26679;50.872;4.332;2023-09-08T02:44:56;24.90;94.60
39665;DHT22;26679;50.872;4.332;2023-09-08T02:47:22;24.80;94.70
39665;DHT22;26679;50.872;4.332;2023-09-08T02:49:47;24.80;94.70
39665;DHT22;26679;50.872;4.332;2023-09-08T02:52:13;24.80;94.90
39665;DHT22;26679;50.872;4.332;2023-09-08T02:54:38;24.80;95.10
39665;DHT22;26679;50.872;4.332;2023-09-08T02:57:04;24.70;95.30
39665;DHT22;26679;50.872;4.332;2023-09-08T02:59:30;24.70;95.50
39665;DHT22;26679;50.872;4.332;2023-09-08T03:01:55;24.60;95.80
39665;DHT22;26679;50.872;4.332;2023-09-08T03:04:21;24.70;95.70
39665;DHT22;26679;50.872;4.332;2023-09-08T03:06:46;24.70;95.70
39665;DHT22;26679;50.872;4.332;2023-09-08T03:09:12;24.60;95.80
39665;DHT22;26679;50.872;4.332;2023-09-08T03:11:37;24.60;95.90
39665;DHT22;26679;50.872;4.332;2023-09-08T03:14:03;24.60;96.00
39665;DHT22;26679;50.872;4.332;2023-09-08T03:16:28;24.60;95.90
39665;DHT22;26679;50.872;4.332;2023-09-08T03:18:54;24.60;95.60
39665;DHT22;26679;50.872;4.332;2023-09-08T03:21:19;24.50;95.50
39665;DHT22;26679;50.872;4.332;2023-09-08T03:23:45;24.50;95.40
39665;DHT22;26679;50.872;4.332;2023-09-08T03:26:11;24.50;95.40
39665;DHT22;26679;50.872;4.332;2023-09-08T03:28:36;24.40;95.50
39665;DHT22;26679;50.872;4.332;2023-09-08T03:31:02;24.40;95.80
39665;DHT22;26679;50.872;4.332;2023-09-08T03:33:28;24.40;95.90
39665;DHT22;26679;50.872;4.332;2023-09-08T03:35:54;24.40;96.00
39665;DHT22;26679;50.872;4.332;2023-09-08T03:38:20;24.40;96.10
39665;DHT22;26679;50.872;4.332;2023-09-08T03:40:46;24.30;96.30
39665;DHT22;26679;50.872;4.332;2023-09-08T03:43:11;24.30;96.30
39665;DHT22;26679;50.872;4.332;2023-09-08T03:45:37;24.30;96.40
39665;DHT22;26679;50.872;4.332;2023-09-08T03:48:02;24.30;96.50
39665;DHT22;26679;50.872;4.332;2023-09-08T03:50:28;24.30;96.50
39665;DHT22;26679;50.872;4.332;2023-09-08T03:52:54;24.20;96.60
39665;DHT22;26679;50.872;4.332;2023-09-08T03:55:20;24.20;96.70
39665;DHT22;26679;50.872;4.332;2023-09-08T03:57:45;24.20;96.80
39665;DHT22;26679;50.872;4.332;2023-09-08T04:00:11;24.10;96.80
39665;DHT22;26679;50.872;4.332;2023-09-08T04:02:37;24.10;96.90
39665;DHT22;26679;50.872;4.332;2023-09-08T04:05:02;24.10;97.00
39665;DHT22;26679;50.872;4.332;2023-09-08T04:07:28;24.10;97.00
39665;DHT22;26679;50.872;4.332;2023-09-08T04:09:54;24.10;97.20
39665;DHT22;26679;50.872;4.332;2023-09-08T04:12:19;24.00;97.20
39665;DHT22;26679;50.872;4.332;2023-09-08T04:14:45;24.00;97.20
39665;DHT22;26679;50.872;4.332;2023-09-08T04:17:10;24.00;97.30
39665;DHT22;26679;50.872;4.332;2023-09-08T04:19:36;24.00;97.30
39665;DHT22;26679;50.872;4.332;2023-09-08T04:22:01;24.00;97.30
39665;DHT22;26679;50.872;4.332;2023-09-08T04:24:27;23.90;97.40
39665;DHT22;26679;50.872;4.332;2023-09-08T04:26:52;23.90;97.40
39665;DHT22;26679;50.872;4.332;2023-09-08T04:29:18;23.90;97.50
39665;DHT22;26679;50.872;4.332;2023-09-08T04:31:43;23.90;97.50
39665;DHT22;26679;50.872;4.332;2023-09-08T04:34:09;23.90;97.50
39665;DHT22;26679;50.872;4.332;2023-09-08T04:36:35;23.90;97.60
39665;DHT22;26679;50.872;4.332;2023-09-08T04:39:00;23.90;97.60
39665;DHT22;26679;50.872;4.332;2023-09-08T04:41:26;23.90;97.70
39665;DHT22;26679;50.872;4.332;2023-09-08T04:43:51;23.90;97.70
39665;DHT22;26679;50.872;4.332;2023-09-08T04:46:18;23.80;97.70
39665;DHT22;26679;50.872;4.332;2023-09-08T04:48:43;23.80;97.70
39665;DHT22;26679;50.872;4.332;2023-09-08T04:51:09;23.80;97.70
39665;DHT22;26679;50.872;4.332;2023-09-08T04:53:34;23.80;97.70
39665;DHT22;26679;50.872;4.332;2023-09-08T04:56:01;23.70;97.80
39665;DHT22;26679;50.872;4.332;2023-09-08T04:58:27;23.70;97.90
39665;DHT22;26679;50.872;4.332;2023-09-08T05:00:52;23.70;97.80
39665;DHT22;26679;50.872;4.332;2023-09-08T05:03:18;23.70;97.90
39665;DHT22;26679;50.872;4.332;2023-09-08T05:05:44;23.70;97.80
39665;DHT22;26679;50.872;4.332;2023-09-08T05:08:10;23.70;97.90
39665;DHT22;26679;50.872;4.332;2023-09-08T05:10:35;23.70;97.80
39665;DHT22;26679;50.872;4.332;2023-09-08T05:13:01;23.70;97.80
39665;DHT22;26679;50.872;4.332;2023-09-08T05:15:26;23.60;97.90
39665;DHT22;26679;50.872;4.332;2023-09-08T05:17:52;23.60;97.90
39665;DHT22;26679;50.872;4.332;2023-09-08T05:20:19;23.60;97.80
39665;DHT22;26679;50.872;4.332;2023-09-08T05:22:44;23.50;97.90
39665;DHT22;26679;50.872;4.332;2023-09-08T05:25:10;23.50;98.00
39665;DHT22;26679;50.872;4.332;2023-09-08T05:27:35;23.40;98.00
39665;DHT22;26679;50.872;4.332;2023-09-08T05:30:01;23.40;98.00
39665;DHT22;26679;50.872;4.332;2023-09-08T05:32:27;23.40;98.20
39665;DHT22;26679;50.872;4.332;2023-09-08T05:34:52;23.40;98.20
39665;DHT22;26679;50.872;4.332;2023-09-08T05:37:18;23.40;98.30
39665;DHT22;26679;50.872;4.332;2023-09-08T05:39:43;23.40;98.40
39665;DHT22;26679;50.872;4.332;2023-09-08T05:42:09;23.40;98.40
39665;DHT22;26679;50.872;4.332;2023-09-08T05:44:34;23.40;98.40
39665;DHT22;26679;50.872;4.332;2023-09-08T05:47:00;23.40;98.40
39665;DHT22;26679;50.872;4.332;2023-09-08T05:49:26;23.40;98.70
39665;DHT22;26679;50.872;4.332;2023-09-08T05:51:51;23.50;98.50
39665;DHT22;26679;50.872;4.332;2023-09-08T05:54:17;23.40;98.40
39665;DHT22;26679;50.872;4.332;2023-09-08T05:56:43;22.80;98.30
39665;DHT22;26679;50.872;4.332;2023-09-08T05:59:09;23.40;98.50
39665;DHT22;26679;50.872;4.332;2023-09-08T06:01:35;23.40;98.50
39665;DHT22;26679;50.872;4.332;2023-09-08T06:04:01;23.50;98.50
39665;DHT22;26679;50.872;4.332;2023-09-08T06:06:27;23.50;98.60
39665;DHT22;26679;50.872;4.332;2023-09-08T06:08:53;23.50;98.60
39665;DHT22;26679;50.872;4.332;2023-09-08T06:11:19;23.40;98.50
39665;DHT22;26679;50.872;4.332;2023-09-08T06:13:44;23.40;98.60
39665;DHT22;26679;50.872;4.332;2023-09-08T06:16:10;23.40;98.60
39665;DHT22;26679;50.872;4.332;2023-09-08T06:18:36;23.40;98.70
39665;DHT22;26679;50.872;4.332;2023-09-08T06:21:08;23.40;98.70
39665;DHT22;26679;50.872;4.332;2023-09-08T06:23:34;23.40;98.70
39665;DHT22;26679;50.872;4.332;2023-09-08T06:25:59;23.30;98.80
39665;DHT22;26679;50.872;4.332;2023-09-08T06:28:26;23.30;98.90
39665;DHT22;26679;50.872;4.332;2023-09-08T06:30:52;23.30;99.00
39665;DHT22;26679;50.872;4.332;2023-09-08T06:33:17;23.40;99.10
39665;DHT22;26679;50.872;4.332;2023-09-08T06:35:43;23.30;99.00
39665;DHT22;26679;50.872;4.332;2023-09-08T06:38:08;23.40;99.10
39665;DHT22;26679;50.872;4.332;2023-09-08T06:40:34;23.40;99.00
39665;DHT22;26679;50.872;4.332;2023-09-08T06:42:59;23.40;99.00
39665;DHT22;26679;50.872;4.332;2023-09-08T06:45:25;23.50;99.10
39665;DHT22;26679;50.872;4.332;2023-09-08T06:47:51;23.50;99.00
39665;DHT22;26679;50.872;4.332;2023-09-08T06:50:23;23.50;99.00
39665;DHT22;26679;50.872;4.332;2023-09-08T06:52:49;23.60;99.00
39665;DHT22;26679;50.872;4.332;2023-09-08T06:55:15;23.70;98.90
39665;DHT22;26679;50.872;4.332;2023-09-08T06:57:44;23.70;98.90
39665;DHT22;26679;50.872;4.332;2023-09-08T07:00:10;23.70;99.00
39665;DHT22;26679;50.872;4.332;2023-09-08T07:02:37;23.80;98.90
39665;DHT22;26679;50.872;4.332;2023-09-08T07:05:02;24.00;98.80
39665;DHT22;26679;50.872;4.332;2023-09-08T07:07:33;24.00;98.50
39665;DHT22;26679;50.872;4.332;2023-09-08T07:09:59;24.10;98.50
39665;DHT22;26679;50.872;4.332;2023-09-08T07:12:24;24.20;98.50
39665;DHT22;26679;50.872;4.332;2023-09-08T07:14:50;24.40;98.30
39665;DHT22;26679;50.872;4.332;2023-09-08T07:17:15;24.50;97.90
39665;DHT22;26679;50.872;4.332;2023-09-08T07:19:41;24.60;98.00
39665;DHT22;26679;50.872;4.332;2023-09-08T07:22:06;24.80;97.90
39665;DHT22;26679;50.872;4.332;2023-09-08T07:24:32;25.00;97.50
39665;DHT22;26679;50.872;4.332;2023-09-08T07:26:57;25.00;97.10
39665;DHT22;26679;50.872;4.332;2023-09-08T07:29:23;25.10;96.90
39665;DHT22;26679;50.872;4.332;2023-09-08T07:31:48;25.10;96.80
39665;DHT22;26679;50.872;4.332;2023-09-08T07:34:14;25.00;96.80
39665;DHT22;26679;50.872;4.332;2023-09-08T07:36:39;25.10;96.60
39665;DHT22;26679;50.872;4.332;2023-09-08T07:39:05;25.00;96.70
39665;DHT22;26679;50.872;4.332;2023-09-08T07:41:30;24.90;96.80
39665;DHT22;26679;50.872;4.332;2023-09-08T07:43:56;24.90;97.00
39665;DHT22;26679;50.872;4.332;2023-09-08T07:46:21;24.90;97.00
39665;DHT22;26679;50.872;4.332;2023-09-08T07:48:47;25.00;97.10
39665;DHT22;26679;50.872;4.332;2023-09-08T07:51:12;25.10;97.00
39665;DHT22;26679;50.872;4.332;2023-09-08T07:53:38;25.10;97.00
39665;DHT22;26679;50.872;4.332;2023-09-08T07:56:04;25.10;97.00
39665;DHT22;26679;50.872;4.332;2023-09-08T07:58:29;25.10;97.00
39665;DHT22;26679;50.872;4.332;2023-09-08T08:00:55;25.20;97.30
39665;DHT22;26679;50.872;4.332;2023-09-08T08:03:20;25.30;96.90
39665;DHT22;26679;50.872;4.332;2023-09-08T08:05:46;25.30;96.90
39665;DHT22;26679;50.872;4.332;2023-09-08T08:08:11;25.40;96.90
39665;DHT22;26679;50.872;4.332;2023-09-08T08:10:37;25.40;96.90
39665;DHT22;26679;50.872;4.332;2023-09-08T08:13:03;25.50;96.80
39665;DHT22;26679;50.872;4.332;2023-09-08T08:15:35;25.50;96.70
39665;DHT22;26679;50.872;4.332;2023-09-08T08:18:00;25.40;96.80
39665;DHT22;26679;50.872;4.332;2023-09-08T08:20:26;25.50;96.80
39665;DHT22;26679;50.872;4.332;2023-09-08T08:22:52;25.50;96.90
39665;DHT22;26679;50.872;4.332;2023-09-08T08:25:17;25.60;96.90
39665;DHT22;26679;50.872;4.332;2023-09-08T08:27:43;25.60;96.80
39665;DHT22;26679;50.872;4.332;2023-09-08T08:30:08;25.50;96.80
39665;DHT22;26679;50.872;4.332;2023-09-08T08:32:34;24.90;96.90
39665;DHT22;26679;50.872;4.332;2023-09-08T08:35:00;25.40;97.20
39665;DHT22;26679;50.872;4.332;2023-09-08T08:37:25;25.30;97.40
39665;DHT22;26679;50.872;4.332;2023-09-08T08:39:51;25.40;97.30
39665;DHT22;26679;50.872;4.332;2023-09-08T08:42:16;25.60;97.20
39665;DHT22;26679;50.872;4.332;2023-09-08T08:44:42;25.60;97.10
39665;DHT22;26679;50.872;4.332;2023-09-08T08:47:09;26.00;97.40
39665;DHT22;26679;50.872;4.332;2023-09-08T08:49:35;27.10;96.00
39665;DHT22;26679;50.872;4.332;2023-09-08T08:52:01;27.90;94.30
39665;DHT22;26679;50.872;4.332;2023-09-08T08:54:35;28.70;93.90
39665;DHT22;26679;50.872;4.332;2023-09-08T08:57:03;29.60;92.70
39665;DHT22;26679;50.872;4.332;2023-09-08T08:59:29;30.30;91.70
39665;DHT22;26679;50.872;4.332;2023-09-08T09:01:55;30.80;91.40
39665;DHT22;26679;50.872;4.332;2023-09-08T09:04:21;31.00;90.90
39665;DHT22;26679;50.872;4.332;2023-09-08T09:06:47;31.60;90.40
39665;DHT22;26679;50.872;4.332;2023-09-08T09:09:12;31.80;90.10
39665;DHT22;26679;50.872;4.332;2023-09-08T09:11:39;32.00;90.00
39665;DHT22;26679;50.872;4.332;2023-09-08T09:14:05;32.20;89.30
39665;DHT22;26679;50.872;4.332;2023-09-08T09:16:30;32.40;88.90
39665;DHT22;26679;50.872;4.332;2023-09-08T09:18:57;32.70;87.90
39665;DHT22;26679;50.872;4.332;2023-09-08T09:21:23;32.90;87.70
39665;DHT22;26679;50.872;4.332;2023-09-08T09:23:48;32.90;87.20
39665;DHT22;26679;50.872;4.332;2023-09-08T09:26:24;33.10;87.50
39665;DHT22;26679;50.872;4.332;2023-09-08T09:28:50;33.40;86.90
39665;DHT22;26679;50.872;4.332;2023-09-08T09:31:17;33.80;86.50
39665;DHT22;26679;50.872;4.332;2023-09-08T09:33:44;34.10;85.50
39665;DHT22;26679;50.872;4.332;2023-09-08T09:36:09;34.30;85.40
39665;DHT22;26679;50.872;4.332;2023-09-08T09:38:35;34.60;83.80
39665;DHT22;26679;50.872;4.332;2023-09-08T09:41:00;34.90;83.80
39665;DHT22;26679;50.872;4.332;2023-09-08T09:43:27;35.30;82.70
39665;DHT22;26679;50.872;4.332;2023-09-08T09:45:53;35.60;82.60
39665;DHT22;26679;50.872;4.332;2023-09-08T09:48:19;35.70;82.10
39665;DHT22;26679;50.872;4.332;2023-09-08T09:50:45;35.50;82.50
39665;DHT22;26679;50.872;4.332;2023-09-08T09:53:11;35.80;82.10
39665;DHT22;26679;50.872;4.332;2023-09-08T09:55:37;35.80;80.60
39665;DHT22;26679;50.872;4.332;2023-09-08T09:58:06;35.90;81.10
39665;DHT22;26679;50.872;4.332;2023-09-08T10:00:33;36.60;81.20
39665;DHT22;26679;50.872;4.332;2023-09-08T10:02:59;37.20;80.80
39665;DHT22;26679;50.872;4.332;2023-09-08T10:05:25;37.80;79.90
39665;DHT22;26679;50.872;4.332;2023-09-08T10:07:51;37.70;78.60
39665;DHT22;26679;50.872;4.332;2023-09-08T10:10:17;37.60;78.90
39665;DHT22;26679;50.872;4.332;2023-09-08T10:12:43;37.80;79.10
39665;DHT22;26679;50.872;4.332;2023-09-08T10:15:10;37.90;78.20
39665;DHT22;26679;50.872;4.332;2023-09-08T10:17:36;38.00;78.10
39665;DHT22;26679;50.872;4.332;2023-09-08T10:20:02;37.90;78.20
39665;DHT22;26679;50.872;4.332;2023-09-08T10:22:38;38.40;77.40
39665;DHT22;26679;50.872;4.332;2023-09-08T10:25:05;38.80;76.30
39665;DHT22;26679;50.872;4.332;2023-09-08T10:27:31;38.60;76.10
39665;DHT22;26679;50.872;4.332;2023-09-08T10:30:02;38.80;76.70
39665;DHT22;26679;50.872;4.332;2023-09-08T10:32:29;39.20;75.90
39665;DHT22;26679;50.872;4.332;2023-09-08T10:34:55;39.30;75.00
39665;DHT22;26679;50.872;4.332;2023-09-08T10:37:23;39.10;74.90
39665;DHT22;26679;50.872;4.332;2023-09-08T10:39:54;39.40;74.80
39665;DHT22;26679;50.872;4.332;2023-09-08T10:42:20;39.80;73.80
39665;DHT22;26679;50.872;4.332;2023-09-08T10:47:12;40.40;72.70
39665;DHT22;26679;50.872;4.332;2023-09-08T10:49:38;40.50;72.10
39665;DHT22;26679;50.872;4.332;2023-09-08T10:52:10;40.70;72.20
39665;DHT22;26679;50.872;4.332;2023-09-08T10:55:09;41.30;71.20
39665;DHT22;26679;50.872;4.332;2023-09-08T10:57:28;40.90;69.30
39665;DHT22;26679;50.872;4.332;2023-09-08T10:59:57;40.70;70.20
39665;DHT22;26679;50.872;4.332;2023-09-08T11:02:39;41.40;70.70
39665;DHT22;26679;50.872;4.332;2023-09-08T11:05:06;41.30;70.80
39665;DHT22;26679;50.872;4.332;2023-09-08T11:07:32;41.70;70.60
39665;DHT22;26679;50.872;4.332;2023-09-08T11:10:02;41.10;71.10
39665;DHT22;26679;50.872;4.332;2023-09-08T11:12:28;40.50;71.50
39665;DHT22;26679;50.872;4.332;2023-09-08T11:14:54;40.90;71.40
39665;DHT22;26679;50.872;4.332;2023-09-08T11:17:20;41.50;70.20
39665;DHT22;26679;50.872;4.332;2023-09-08T11:19:48;41.20;69.80
39665;DHT22;26679;50.872;4.332;2023-09-08T11:22:16;40.90;69.30
39665;DHT22;26679;50.872;4.332;2023-09-08T11:24:42;41.00;69.90
39665;DHT22;26679;50.872;4.332;2023-09-08T11:27:08;41.20;69.70
39665;DHT22;26679;50.872;4.332;2023-09-08T11:29:34;41.40;70.00
39665;DHT22;26679;50.872;4.332;2023-09-08T11:31:59;41.40;69.40
39665;DHT22;26679;50.872;4.332;2023-09-08T11:34:25;41.50;69.70
39665;DHT22;26679;50.872;4.332;2023-09-08T11:36:51;41.40;69.70
39665;DHT22;26679;50.872;4.332;2023-09-08T11:39:18;40.70;69.60
39665;DHT22;26679;50.872;4.332;2023-09-08T11:41:43;41.10;69.80
39665;DHT22;26679;50.872;4.332;2023-09-08T11:44:09;41.50;69.70
39665;DHT22;26679;50.872;4.332;2023-09-08T11:46:34;41.50;69.50
39665;DHT22;26679;50.872;4.332;2023-09-08T11:49:00;41.50;69.50
39665;DHT22;26679;50.872;4.332;2023-09-08T11:51:26;41.20;69.80
39665;DHT22;26679;50.872;4.332;2023-09-08T11:53:51;42.00;69.40
39665;DHT22;26679;50.872;4.332;2023-09-08T11:56:17;41.70;69.70
39665;DHT22;26679;50.872;4.332;2023-09-08T11:58:42;41.90;69.80
39665;DHT22;26679;50.872;4.332;2023-09-08T12:01:08;42.00;69.60
39665;DHT22;26679;50.872;4.332;2023-09-08T12:03:35;42.30;68.40
39665;DHT22;26679;50.872;4.332;2023-09-08T12:06:15;42.50;69.00
39665;DHT22;26679;50.872;4.332;2023-09-08T12:08:41;42.30;69.40
39665;DHT22;26679;50.872;4.332;2023-09-08T12:11:07;42.00;69.70
39665;DHT22;26679;50.872;4.332;2023-09-08T12:13:33;41.70;68.40
39665;DHT22;26679;50.872;4.332;2023-09-08T12:15:59;42.10;68.60
39665;DHT22;26679;50.872;4.332;2023-09-08T12:18:38;42.50;68.90
39665;DHT22;26679;50.872;4.332;2023-09-08T12:21:04;42.80;68.40
39665;DHT22;26679;50.872;4.332;2023-09-08T12:23:32;43.10;68.50
39665;DHT22;26679;50.872;4.332;2023-09-08T12:25:58;42.70;67.80
39665;DHT22;26679;50.872;4.332;2023-09-08T12:28:24;42.00;68.50
39665;DHT22;26679;50.872;4.332;2023-09-08T12:30:55;42.40;68.60
39665;DHT22;26679;50.872;4.332;2023-09-08T12:33:21;42.20;68.80
39665;DHT22;26679;50.872;4.332;2023-09-08T12:35:46;42.50;68.90
39665;DHT22;26679;50.872;4.332;2023-09-08T12:38:13;42.80;68.90
39665;DHT22;26679;50.872;4.332;2023-09-08T12:40:39;42.70;69.20
39665;DHT22;26679;50.872;4.332;2023-09-08T12:43:05;42.10;69.30
39665;DHT22;26679;50.872;4.332;2023-09-08T12:45:31;41.70;69.80
39665;DHT22;26679;50.872;4.332;2023-09-08T12:47:58;41.70;70.10
39665;DHT22;26679;50.872;4.332;2023-09-08T12:50:24;42.00;70.00
39665;DHT22;26679;50.872;4.332;2023-09-08T12:52:49;42.30;69.80
39665;DHT22;26679;50.872;4.332;2023-09-08T12:55:15;42.70;68.50
39665;DHT22;26679;50.872;4.332;2023-09-08T12:57:41;41.40;68.70
39665;DHT22;26679;50.872;4.332;2023-09-08T13:00:06;41.60;69.30
39665;DHT22;26679;50.872;4.332;2023-09-08T13:02:32;41.30;69.40
39665;DHT22;26679;50.872;4.332;2023-09-08T13:04:58;40.90;70.30
39665;DHT22;26679;50.872;4.332;2023-09-08T13:07:24;41.50;70.00
39665;DHT22;26679;50.872;4.332;2023-09-08T13:09:49;42.40;69.40
39665;DHT22;26679;50.872;4.332;2023-09-08T13:12:15;43.10;69.00
39665;DHT22;26679;50.872;4.332;2023-09-08T13:14:41;43.70;68.50
39665;DHT22;26679;50.872;4.332;2023-09-08T13:17:10;43.50;68.30
39665;DHT22;26679;50.872;4.332;2023-09-08T13:19:35;42.40;69.00
39665;DHT22;26679;50.872;4.332;2023-09-08T13:22:03;42.50;69.30
39665;DHT22;26679;50.872;4.332;2023-09-08T13:24:29;42.80;69.40
39665;DHT22;26679;50.872;4.332;2023-09-08T13:26:54;43.10;68.90
39665;DHT22;26679;50.872;4.332;2023-09-08T13:29:20;42.80;68.90
39665;DHT22;26679;50.872;4.332;2023-09-08T13:31:45;42.40;69.40
39665;DHT22;26679;50.872;4.332;2023-09-08T13:34:11;42.40;69.50
39665;DHT22;26679;50.872;4.332;2023-09-08T13:36:36;42.00;69.30
39665;DHT22;26679;50.872;4.332;2023-09-08T13:39:02;41.90;69.80
39665;DHT22;26679;50.872;4.332;2023-09-08T13:44:29;42.70;69.60
39665;DHT22;26679;50.872;4.332;2023-09-08T13:46:54;42.90;68.90
39665;DHT22;26679;50.872;4.332;2023-09-08T13:49:20;41.90;69.80
39665;DHT22;26679;50.872;4.332;2023-09-08T13:51:46;41.70;70.00
39665;DHT22;26679;50.872;4.332;2023-09-08T13:54:12;41.70;70.10
39665;DHT22;26679;50.872;4.332;2023-09-08T13:56:38;41.40;70.20
39665;DHT22;26679;50.872;4.332;2023-09-08T13:59:05;41.50;70.30
39665;DHT22;26679;50.872;4.332;2023-09-08T14:01:32;41.90;70.00
39665;DHT22;26679;50.872;4.332;2023-09-08T14:03:58;42.00;69.80
39665;DHT22;26679;50.872;4.332;2023-09-08T14:06:25;42.10;69.70
39665;DHT22;26679;50.872;4.332;2023-09-08T14:08:51;42.20;69.80
39665;DHT22;26679;50.872;4.332;2023-09-08T14:11:16;42.00;69.80
39665;DHT22;26679;50.872;4.332;2023-09-08T14:13:42;41.90;69.90
39665;DHT22;26679;50.872;4.332;2023-09-08T14:16:08;42.00;69.70
39665;DHT22;26679;50.872;4.332;2023-09-08T14:18:34;42.30;69.90
39665;DHT22;26679;50.872;4.332;2023-09-08T14:21:00;42.80;69.50
39665;DHT22;26679;50.872;4.332;2023-09-08T14:23:25;42.40;69.50
39665;DHT22;26679;50.872;4.332;2023-09-08T14:25:51;41.70;70.70
39665;DHT22;26679;50.872;4.332;2023-09-08T14:28:17;41.10;71.50
39665;DHT22;26679;50.872;4.332;2023-09-08T14:30:42;40.70;71.80
39665;DHT22;26679;50.872;4.332;2023-09-08T14:33:09;39.70;73.00
39665;DHT22;26679;50.872;4.332;2023-09-08T14:35:35;39.80;73.20
39665;DHT22;26679;50.872;4.332;2023-09-08T14:38:01;39.90;73.10
39665;DHT22;26679;50.872;4.332;2023-09-08T14:40:26;39.90;73.20
39665;DHT22;26679;50.872;4.332;2023-09-08T14:42:52;40.20;73.00
39665;DHT22;26679;50.872;4.332;2023-09-08T14:45:17;40.40;72.90
39665;DHT22;26679;50.872;4.332;2023-09-08T14:47:43;40.40;72.60
39665;DHT22;26679;50.872;4.332;2023-09-08T14:50:08;40.40;72.90
39665;DHT22;26679;50.872;4.332;2023-09-08T14:52:34;40.20;72.70
39665;DHT22;26679;50.872;4.332;2023-09-08T14:55:00;40.30;72.90
39665;DHT22;26679;50.872;4.332;2023-09-08T14:57:25;40.30;73.70
39665;DHT22;26679;50.872;4.332;2023-09-08T14:59:51;40.20;73.20
39665;DHT22;26679;50.872;4.332;2023-09-08T15:02:19;40.00;73.40
39665;DHT22;26679;50.872;4.332;2023-09-08T15:04:45;40.20;73.60
39665;DHT22;26679;50.872;4.332;2023-09-08T15:07:10;40.90;72.80
39665;DHT22;26679;50.872;4.332;2023-09-08T15:09:36;40.90;71.80
39665;DHT22;26679;50.872;4.332;2023-09-08T15:12:01;40.40;72.30
39665;DHT22;26679;50.872;4.332;2023-09-08T15:14:27;40.20;72.80
39665;DHT22;26679;50.872;4.332;2023-09-08T15:16:52;40.50;73.10
39665;DHT22;26679;50.872;4.332;2023-09-08T15:19:18;40.90;72.30
39665;DHT22;26679;50.872;4.332;2023-09-08T15:21:43;40.90;72.20
39665;DHT22;26679;50.872;4.332;2023-09-08T15:24:09;41.20;72.00
39665;DHT22;26679;50.872;4.332;2023-09-08T15:26:34;40.90;72.00
39665;DHT22;26679;50.872;4.332;2023-09-08T15:29:00;40.80;72.20
39665;DHT22;26679;50.872;4.332;2023-09-08T15:31:25;40.40;72.70
39665;DHT22;26679;50.872;4.332;2023-09-08T15:33:51;40.00;73.00